createdAt,value
2018-06-04T00:01:36.361Z,100436.00
2018-06-04T00:04:08.545Z,100437.00
2018-06-04T00:06:41.186Z,100440.00
2018-06-04T00:09:12.001Z,100445.00
2018-06-04T00:11:44.132Z,100437.00
2018-06-04T00:14:14.799Z,100439.00
2018-06-04T00:16:46.046Z,100433.00
2018-06-04T00:19:16.407Z,100420.00
2018-06-04T00:21:47.620Z,100421.00
2018-06-04T00:24:18.589Z,100415.00
2018-06-04T00:26:50.015Z,100411.00
2018-06-04T00:29:20.190Z,100417.00
2018-06-04T00:31:50.209Z,100418.00
2018-06-04T00:34:20.334Z,100420.00
2018-06-04T00:36:51.115Z,100424.00
2018-06-04T00:39:24.436Z,100414.00
2018-06-04T00:41:55.208Z,100403.00
2018-06-04T00:44:25.314Z,100410.00
2018-06-04T00:46:57.418Z,100409.00
2018-06-04T00:49:27.673Z,100413.00
2018-06-04T00:52:00.675Z,100416.00
2018-06-04T00:54:31.926Z,100418.00
2018-06-04T00:57:02.474Z,100419.00
2018-06-04T00:59:32.774Z,100419.00
2018-06-04T01:02:03.148Z,100416.00
2018-06-04T01:04:33.528Z,100417.00
2018-06-04T01:07:03.715Z,100410.00
2018-06-04T01:09:34.018Z,100414.00
2018-06-04T01:12:04.781Z,100415.00
2018-06-04T01:14:34.991Z,100421.00
2018-06-04T01:17:05.177Z,100422.00
2018-06-04T01:19:36.349Z,100424.00
2018-06-04T01:22:07.288Z,100420.00
2018-06-04T01:24:37.708Z,100423.00
2018-06-04T01:27:08.581Z,100413.00
2018-06-04T01:29:38.738Z,100418.00
2018-06-04T01:32:09.325Z,100420.00
2018-06-04T01:34:39.579Z,100422.00
2018-06-04T01:37:10.085Z,100427.00
2018-06-04T01:39:40.307Z,100425.00
2018-06-04T01:42:10.521Z,100421.00
2018-06-04T01:44:40.955Z,100421.00
2018-06-04T01:47:12.083Z,100421.00
2018-06-04T01:49:42.572Z,100413.00
2018-06-04T01:52:12.766Z,100407.00
2018-06-04T01:54:43.454Z,100409.00
2018-06-04T01:57:13.738Z,100397.00
2018-06-04T01:59:44.668Z,100400.00
2018-06-04T02:02:14.896Z,100398.00
2018-06-04T02:04:45.026Z,100397.00
2018-06-04T02:07:15.129Z,100397.00
2018-06-04T02:09:45.358Z,100386.00
2018-06-04T02:12:15.405Z,100391.00
2018-06-04T02:14:47.142Z,100390.00
2018-06-04T02:17:17.462Z,100398.00
2018-06-04T02:19:47.761Z,100407.00
2018-06-04T02:22:18.326Z,100401.00
2018-06-04T02:24:49.574Z,100397.00
2018-06-04T02:27:20.031Z,100394.00
2018-06-04T02:29:50.530Z,100401.00
2018-06-04T02:32:20.728Z,100399.00
2018-06-04T02:34:51.222Z,100395.00
2018-06-04T02:37:21.270Z,100392.00
2018-06-04T02:39:51.628Z,100387.00
2018-06-04T02:42:22.859Z,100383.00
2018-06-04T02:44:55.142Z,100383.00
2018-06-04T02:47:25.528Z,100378.00
2018-06-04T02:49:56.253Z,100379.00
2018-06-04T02:52:26.303Z,100377.00
2018-06-04T02:54:56.519Z,100379.00
2018-06-04T02:57:27.345Z,100377.00
2018-06-04T02:59:59.302Z,100371.00
2018-06-04T03:02:29.576Z,100371.00
2018-06-04T03:05:00.435Z,100368.00
2018-06-04T03:07:31.433Z,100373.00
2018-06-04T03:10:02.274Z,100377.00
2018-06-04T03:12:35.163Z,100370.00
2018-06-04T03:15:05.718Z,100366.00
2018-06-04T03:17:36.020Z,100370.00
2018-06-04T03:20:06.639Z,100367.00
2018-06-04T03:22:36.967Z,100376.00
2018-06-04T03:25:07.781Z,100382.00
2018-06-04T03:27:38.441Z,100380.00
2018-06-04T03:30:08.710Z,100377.00
2018-06-04T03:32:40.567Z,100372.00
2018-06-04T03:35:10.905Z,100369.00
2018-06-04T03:37:41.776Z,100372.00
2018-06-04T03:40:11.468Z,100365.00
2018-06-04T03:42:41.762Z,100371.00
2018-06-04T03:45:12.227Z,100381.00
2018-06-04T03:47:43.133Z,100368.00
2018-06-04T03:50:15.118Z,100375.00
2018-06-04T03:52:45.430Z,100356.00
2018-06-04T03:55:15.671Z,100363.00
2018-06-04T03:57:46.024Z,100354.00
2018-06-04T04:00:16.266Z,100358.00
2018-06-04T04:02:46.339Z,100357.00
2018-06-04T04:05:16.713Z,100366.00
2018-06-04T04:07:47.566Z,100374.00
2018-06-04T04:10:19.773Z,100366.00
2018-06-04T04:12:50.053Z,100366.00
2018-06-04T04:15:22.027Z,100369.00
2018-06-04T04:17:52.178Z,100365.00
2018-06-04T04:20:23.409Z,100375.00
2018-06-04T04:22:54.346Z,100374.00
2018-06-04T04:25:24.572Z,100367.00
2018-06-04T04:27:55.716Z,100365.00
2018-06-04T04:30:26.117Z,100372.00
2018-06-04T04:32:56.377Z,100374.00
2018-06-04T04:35:27.343Z,100371.00
2018-06-04T04:37:58.270Z,100372.00
2018-06-04T04:40:28.871Z,100369.00
2018-06-04T04:42:59.422Z,100368.00
2018-06-04T04:45:29.606Z,100373.00
2018-06-04T04:48:00.709Z,100381.00
2018-06-04T04:50:31.459Z,100370.00
2018-06-04T04:53:02.058Z,100366.00
2018-06-04T04:55:32.479Z,100371.00
2018-06-04T04:58:02.896Z,100369.00
2018-06-04T05:00:33.047Z,100372.00
2018-06-04T05:03:04.019Z,100372.00
2018-06-04T05:05:34.041Z,100374.00
2018-06-04T05:08:04.591Z,100390.00
2018-06-04T05:10:34.966Z,100386.00
2018-06-04T05:13:05.108Z,100376.00
2018-06-04T05:15:35.268Z,100378.00
2018-06-04T05:18:08.737Z,100382.00
2018-06-04T05:20:40.273Z,100380.00
2018-06-04T05:23:11.838Z,100378.00
2018-06-04T05:25:43.038Z,100378.00
2018-06-04T05:28:13.475Z,100376.00
2018-06-04T05:30:44.442Z,100378.00
2018-06-04T05:33:16.126Z,100380.00
2018-06-04T05:35:47.359Z,100368.00
2018-06-04T05:38:17.531Z,100369.00
2018-06-04T05:40:48.200Z,100373.00
2018-06-04T05:43:18.313Z,100381.00
2018-06-04T05:45:49.405Z,100374.00
2018-06-04T05:48:19.932Z,100377.00
2018-06-04T05:50:50.114Z,100374.00
2018-06-04T05:53:21.125Z,100371.00
2018-06-04T05:55:51.578Z,100374.00
2018-06-04T05:58:21.717Z,100379.00
2018-06-04T06:00:52.267Z,100375.00
2018-06-04T06:03:22.878Z,100375.00
2018-06-04T06:05:53.079Z,100376.00
2018-06-04T06:08:23.141Z,100381.00
2018-06-04T06:10:54.741Z,100373.00
2018-06-04T06:13:26.846Z,100376.00
2018-06-04T06:15:56.881Z,100380.00
2018-06-04T06:18:27.389Z,100382.00
2018-06-04T06:20:57.915Z,100377.00
2018-06-04T06:23:28.637Z,100375.00
2018-06-04T06:25:58.832Z,100385.00
2018-06-04T06:28:28.895Z,100386.00
2018-06-04T06:31:00.301Z,100378.00
2018-06-04T06:33:30.975Z,100387.00
2018-06-04T06:36:02.038Z,100374.00
2018-06-04T06:38:32.116Z,100375.00
2018-06-04T06:41:02.161Z,100368.00
2018-06-04T06:43:32.543Z,100371.00
2018-06-04T06:46:02.657Z,100369.00
2018-06-04T06:48:32.951Z,100369.00
2018-06-04T06:51:03.174Z,100367.00
2018-06-04T06:53:34.025Z,100366.00
2018-06-04T06:56:04.248Z,100372.00
2018-06-04T06:58:34.588Z,100382.00
2018-06-04T07:01:04.726Z,100384.00
2018-06-04T07:03:35.210Z,100392.00
2018-06-04T07:06:05.455Z,100391.00
2018-06-04T07:08:36.578Z,100392.00
2018-06-04T07:11:06.889Z,100387.00
2018-06-04T07:13:36.916Z,100403.00
2018-06-04T07:16:07.701Z,100396.00
2018-06-04T07:18:38.262Z,100395.00
2018-06-04T07:21:08.775Z,100393.00
2018-06-04T07:23:38.746Z,100404.00
2018-06-04T07:26:09.734Z,100402.00
2018-06-04T07:28:42.062Z,100401.00
2018-06-04T07:31:13.471Z,100395.00
2018-06-04T07:33:43.604Z,100406.00
2018-06-04T07:36:14.108Z,100413.00
2018-06-04T07:38:44.526Z,100411.00
2018-06-04T07:41:15.333Z,100410.00
2018-06-04T07:43:45.724Z,100413.00
2018-06-04T07:46:18.601Z,100413.00
2018-06-04T07:48:50.877Z,100417.00
2018-06-04T07:51:21.686Z,100423.00
2018-06-04T07:53:52.296Z,100426.00
2018-06-04T07:56:23.207Z,100432.00
2018-06-04T07:58:56.068Z,100422.00
2018-06-04T08:01:26.589Z,100424.00
2018-06-04T08:03:56.874Z,100429.00
2018-06-04T08:06:28.336Z,100427.00
2018-06-04T08:08:58.931Z,100424.00
2018-06-04T08:11:29.042Z,100432.00
2018-06-04T08:13:59.312Z,100431.00
2018-06-04T08:16:29.421Z,100436.00
2018-06-04T08:19:00.665Z,100436.00
2018-06-04T08:21:31.788Z,100441.00
2018-06-04T08:24:02.151Z,100441.00
2018-06-04T08:26:32.481Z,100437.00
2018-06-04T08:29:02.637Z,100447.00
2018-06-04T08:31:34.418Z,100443.00
2018-06-04T08:34:04.684Z,100443.00
2018-06-04T08:36:35.120Z,100443.00
2018-06-04T08:39:08.586Z,100446.00
2018-06-04T08:41:39.346Z,100442.00
2018-06-04T08:44:11.208Z,100446.00
2018-06-04T08:46:42.408Z,100441.00
2018-06-04T08:49:13.314Z,100441.00
2018-06-04T08:51:43.980Z,100448.00
2018-06-04T08:54:14.782Z,100450.00
2018-06-04T08:56:46.674Z,100443.00
2018-06-04T08:59:16.787Z,100449.00
2018-06-04T09:01:47.011Z,100449.00
2018-06-04T09:04:17.227Z,100441.00
2018-06-04T09:06:47.685Z,100450.00
2018-06-04T09:09:18.785Z,100445.00
2018-06-04T09:11:51.819Z,100444.00
2018-06-04T09:14:22.227Z,100444.00
2018-06-04T09:16:52.613Z,100461.00
2018-06-04T09:19:23.149Z,100449.00
2018-06-04T09:21:54.169Z,100445.00
2018-06-04T09:24:24.543Z,100448.00
2018-06-04T09:26:55.783Z,100447.00
2018-06-04T09:29:27.591Z,100458.00
2018-06-04T09:31:57.923Z,100449.00
2018-06-04T09:34:28.083Z,100445.00
2018-06-04T09:37:00.572Z,100435.00
2018-06-04T09:39:32.486Z,100430.00
2018-06-04T09:42:04.209Z,100429.00
2018-06-04T09:44:35.510Z,100426.00
2018-06-04T09:47:07.032Z,100421.00
2018-06-04T09:49:40.225Z,100417.00
2018-06-04T09:52:13.315Z,100430.00
2018-06-04T09:54:45.548Z,100408.00
2018-06-04T09:57:16.648Z,100417.00
2018-06-04T09:59:47.025Z,100417.00
2018-06-04T10:02:18.201Z,100421.00
2018-06-04T10:04:49.931Z,100419.00
2018-06-04T10:07:20.871Z,100417.00
2018-06-04T10:09:55.441Z,100426.00
2018-06-04T10:12:26.600Z,100423.00
2018-06-04T10:14:57.590Z,100422.00
2018-06-04T10:17:28.437Z,100421.00
2018-06-04T10:19:58.485Z,100424.00
2018-06-04T10:22:29.983Z,100423.00
2018-06-04T10:25:01.268Z,100425.00
2018-06-04T10:27:31.839Z,100428.00
2018-06-04T10:30:01.950Z,100423.00
2018-06-04T10:32:35.111Z,100418.00
2018-06-04T10:35:05.920Z,100429.00
2018-06-04T10:37:38.741Z,100421.00
2018-06-04T10:40:09.290Z,100412.00
2018-06-04T10:42:39.470Z,100414.00
2018-06-04T10:45:09.790Z,100414.00
2018-06-04T10:47:41.755Z,100416.00
2018-06-04T10:50:13.947Z,100422.00
2018-06-04T10:52:44.653Z,100422.00
2018-06-04T10:55:16.195Z,100422.00
2018-06-04T10:57:47.202Z,100413.00
2018-06-04T11:00:18.564Z,100437.00
2018-06-04T11:02:48.597Z,100424.00
2018-06-04T11:05:19.919Z,100416.00
2018-06-04T11:07:52.149Z,100407.00
2018-06-04T11:10:22.363Z,100416.00
2018-06-04T11:12:53.615Z,100421.00
2018-06-04T11:15:23.925Z,100418.00
2018-06-04T11:17:55.876Z,100421.00
2018-06-04T11:20:26.012Z,100427.00
2018-06-04T11:22:56.979Z,100425.00
2018-06-04T11:25:27.667Z,100424.00
2018-06-04T11:27:59.198Z,100410.00
2018-06-04T11:30:31.330Z,100406.00
2018-06-04T11:33:02.755Z,100407.00
2018-06-04T11:35:34.467Z,100412.00
2018-06-04T11:38:05.765Z,100407.00
2018-06-04T11:40:37.563Z,100399.00
2018-06-04T11:43:09.041Z,100402.00
2018-06-04T11:45:39.529Z,100403.00
2018-06-04T11:48:09.854Z,100392.00
2018-06-04T11:50:41.057Z,100396.00
2018-06-04T11:53:12.651Z,100404.00
2018-06-04T11:55:43.368Z,100398.00
2018-06-04T11:58:14.561Z,100398.00
2018-06-04T12:00:45.340Z,100399.00
2018-06-04T12:03:16.450Z,100408.00
2018-06-04T12:05:46.714Z,100406.00
2018-06-04T12:08:17.436Z,100409.00
2018-06-04T12:10:48.224Z,100401.00
2018-06-04T12:13:21.139Z,100408.00
2018-06-04T12:15:52.585Z,100402.00
2018-06-04T12:18:22.577Z,100406.00
2018-06-04T12:20:56.408Z,100406.00
2018-06-04T12:23:26.972Z,100412.00
2018-06-04T12:25:59.656Z,100407.00
2018-06-04T12:28:32.646Z,100410.00
2018-06-04T12:31:04.812Z,100412.00
2018-06-04T12:33:34.956Z,100416.00
2018-06-04T12:36:07.653Z,100410.00
2018-06-04T12:38:40.760Z,100408.00
2018-06-04T12:41:11.940Z,100406.00
2018-06-04T12:43:43.801Z,100403.00
2018-06-04T12:46:15.435Z,100411.00
2018-06-04T12:48:46.649Z,100408.00
2018-06-04T12:51:17.951Z,100415.00
2018-06-04T12:53:50.127Z,100414.00
2018-06-04T12:56:21.286Z,100419.00
2018-06-04T12:58:52.760Z,100420.00
2018-06-04T13:01:25.732Z,100421.00
2018-06-04T13:03:56.396Z,100428.00
2018-06-04T13:06:28.203Z,100429.00
2018-06-04T13:08:59.598Z,100423.00
2018-06-04T13:11:31.509Z,100422.00
2018-06-04T13:14:03.341Z,100429.00
2018-06-04T13:16:34.968Z,100433.00
2018-06-04T13:19:07.097Z,100415.00
2018-06-04T13:21:40.155Z,100411.00
2018-06-04T13:24:10.473Z,100409.00
2018-06-04T13:26:42.744Z,100405.00
2018-06-04T13:29:13.411Z,100403.00
2018-06-04T13:31:44.522Z,100407.00
2018-06-04T13:34:17.508Z,100405.00
2018-06-04T13:36:48.977Z,100403.00
2018-06-04T13:39:20.917Z,100408.00
2018-06-04T13:41:51.626Z,100405.00
2018-06-04T13:44:23.240Z,100405.00
2018-06-04T13:46:54.627Z,100400.00
2018-06-04T13:49:24.749Z,100313.00
2018-06-04T13:51:56.193Z,100401.00
2018-06-04T13:54:27.596Z,100406.00
2018-06-04T13:56:59.544Z,100395.00
2018-06-04T13:59:30.558Z,100399.00
2018-06-04T14:02:02.139Z,100394.00
2018-06-04T14:04:32.270Z,100403.00
2018-06-04T14:07:07.773Z,100399.00
2018-06-04T14:09:40.201Z,100402.00
2018-06-04T14:12:14.032Z,100396.00
2018-06-04T14:14:46.903Z,100395.00
2018-06-04T14:17:17.191Z,100390.00
2018-06-04T14:19:48.982Z,100381.00
2018-06-04T14:22:19.227Z,100425.00
2018-06-04T14:24:51.578Z,100391.00
2018-06-04T14:27:24.071Z,100388.00
2018-06-04T14:29:54.772Z,100382.00
2018-06-04T14:32:26.002Z,100387.00
2018-06-04T14:34:57.532Z,100392.00
2018-06-04T14:37:27.959Z,100383.00
2018-06-04T14:39:59.248Z,100383.00
2018-06-04T14:42:37.850Z,100379.00
2018-06-04T14:45:08.355Z,100385.00
2018-06-04T14:47:39.917Z,100387.00
2018-06-04T14:50:12.073Z,100387.00
2018-06-04T14:52:42.623Z,100383.00
2018-06-04T14:55:14.000Z,100378.00
2018-06-04T14:57:44.470Z,100383.00
2018-06-04T15:00:14.597Z,100377.00
2018-06-04T15:02:44.809Z,100382.00
2018-06-04T15:05:15.228Z,100378.00
2018-06-04T15:07:45.726Z,100379.00
2018-06-04T15:10:15.924Z,100374.00
2018-06-04T15:12:48.362Z,100378.00
2018-06-04T15:15:19.229Z,100377.00
2018-06-04T15:17:52.758Z,100374.00
2018-06-04T15:20:23.736Z,100378.00
2018-06-04T15:22:55.497Z,100381.00
2018-06-04T15:25:28.138Z,100372.00
2018-06-04T15:27:59.217Z,100376.00
2018-06-04T15:30:29.591Z,100378.00
2018-06-04T15:33:00.577Z,100377.00
2018-06-04T15:35:32.130Z,100372.00
2018-06-04T15:38:03.880Z,100377.00
2018-06-04T15:40:34.057Z,100362.00
2018-06-04T15:43:04.931Z,100371.00
2018-06-04T15:45:35.312Z,100365.00
2018-06-04T15:48:06.826Z,100363.00
2018-06-04T15:50:38.321Z,100361.00
2018-06-04T15:53:11.174Z,100368.00
2018-06-04T15:55:42.997Z,100368.00
2018-06-04T15:58:14.516Z,100359.00
2018-06-04T16:00:45.777Z,100357.00
2018-06-04T16:03:16.140Z,100355.00
2018-06-04T16:05:47.359Z,100362.00
2018-06-04T16:08:17.594Z,100360.00
2018-06-04T16:10:49.183Z,100357.00
2018-06-04T16:13:19.842Z,100359.00
2018-06-04T16:15:50.869Z,100362.00
2018-06-04T16:18:20.864Z,100358.00
2018-06-04T16:20:51.221Z,100363.00
2018-06-04T16:23:22.065Z,100366.00
2018-06-04T16:25:53.001Z,100362.00
2018-06-04T16:28:24.750Z,100360.00
2018-06-04T16:30:54.950Z,100360.00
2018-06-04T16:33:25.081Z,100357.00
2018-06-04T16:35:55.694Z,100366.00
2018-06-04T16:38:25.780Z,100361.00
2018-06-04T16:40:59.364Z,100352.00
2018-06-04T16:43:30.386Z,100353.00
2018-06-04T16:46:01.568Z,100353.00
2018-06-04T16:48:32.146Z,100360.00
2018-06-04T16:51:02.603Z,100357.00
2018-06-04T16:53:33.014Z,100357.00
2018-06-04T16:56:03.204Z,100349.00
2018-06-04T16:58:34.627Z,100352.00
2018-06-04T17:01:04.783Z,100349.00
2018-06-04T17:03:35.754Z,100346.00
2018-06-04T17:06:06.020Z,100354.00
2018-06-04T17:08:37.693Z,100351.00
2018-06-04T17:11:09.632Z,100345.00
2018-06-04T17:13:39.939Z,100351.00
2018-06-04T17:16:10.163Z,100353.00
2018-06-04T17:18:41.826Z,100352.00
2018-06-04T17:21:13.357Z,100350.00
2018-06-04T17:23:44.675Z,100345.00
2018-06-04T17:26:15.509Z,100350.00
2018-06-04T17:28:45.884Z,100348.00
2018-06-04T17:31:17.449Z,100346.00
2018-06-04T17:33:48.412Z,100363.00
2018-06-04T17:36:19.445Z,100344.00
2018-06-04T17:38:49.926Z,100335.00
2018-06-04T17:41:21.265Z,100341.00
2018-06-04T17:43:52.541Z,100349.00
2018-06-04T17:46:23.008Z,100355.00
2018-06-04T17:48:53.348Z,100354.00
2018-06-04T17:51:24.460Z,100348.00
2018-06-04T17:53:59.521Z,100352.00
2018-06-04T17:56:33.799Z,100346.00
2018-06-04T17:59:04.857Z,100355.00
2018-06-04T18:01:36.662Z,100351.00
2018-06-04T18:04:10.307Z,100355.00
2018-06-04T18:06:47.635Z,100356.00
2018-06-04T18:09:18.043Z,100359.00
2018-06-04T18:11:49.644Z,100354.00
2018-06-04T18:14:21.342Z,100353.00
2018-06-04T18:16:52.068Z,100360.00
2018-06-04T18:19:23.020Z,100362.00
2018-06-04T18:21:55.257Z,100367.00
2018-06-04T18:24:26.593Z,100354.00
2018-06-04T18:26:57.886Z,100363.00
2018-06-04T18:29:28.351Z,100366.00
2018-06-04T18:31:58.982Z,100366.00
2018-06-04T18:34:29.730Z,100362.00
2018-06-04T18:37:00.673Z,100360.00
2018-06-04T18:39:31.095Z,100367.00
2018-06-04T18:42:01.526Z,100368.00
2018-06-04T18:44:32.241Z,100362.00
2018-06-04T18:47:02.601Z,100371.00
2018-06-04T18:49:33.924Z,100386.00
2018-06-04T18:52:05.653Z,100381.00
2018-06-04T18:54:36.978Z,100384.00
2018-06-04T18:57:07.550Z,100377.00
2018-06-04T18:59:37.943Z,100376.00
2018-06-04T19:02:09.165Z,100369.00
2018-06-04T19:04:41.273Z,100371.00
2018-06-04T19:07:12.124Z,100372.00
2018-06-04T19:09:43.293Z,100371.00
2018-06-04T19:12:15.364Z,100378.00
2018-06-04T19:14:45.595Z,100381.00
2018-06-04T19:17:16.758Z,100382.00
2018-06-04T19:19:48.069Z,100390.00
2018-06-04T19:22:18.105Z,100372.00
2018-06-04T19:24:49.033Z,100383.00
2018-06-04T19:27:19.586Z,100377.00
2018-06-04T19:29:49.696Z,100390.00
2018-06-04T19:32:20.020Z,100387.00
2018-06-04T19:34:50.849Z,100382.00
2018-06-04T19:37:22.654Z,100396.00
2018-06-04T19:39:52.723Z,100392.00
2018-06-04T19:42:22.957Z,100397.00
2018-06-04T19:44:54.517Z,100404.00
2018-06-04T19:47:24.900Z,100407.00
2018-06-04T19:49:56.077Z,100405.00
2018-06-04T19:52:26.227Z,100407.00
2018-06-04T19:54:56.590Z,100410.00
2018-06-04T19:57:26.828Z,100408.00
2018-06-04T19:59:57.544Z,100410.00
2018-06-04T20:02:27.780Z,100415.00
2018-06-04T20:04:58.898Z,100415.00
2018-06-04T20:07:29.363Z,100417.00
2018-06-04T20:10:00.402Z,100423.00
2018-06-04T20:12:30.864Z,100423.00
2018-06-04T20:15:02.055Z,100418.00
2018-06-04T20:17:32.301Z,100428.00
2018-06-04T20:20:02.689Z,100425.00
2018-06-04T20:22:34.474Z,100440.00
2018-06-04T20:25:05.293Z,100445.00
2018-06-04T20:27:35.705Z,100444.00
2018-06-04T20:30:07.195Z,100452.00
2018-06-04T20:32:39.779Z,100449.00
2018-06-04T20:35:12.239Z,100449.00
2018-06-04T20:37:42.450Z,100459.00
2018-06-04T20:40:13.097Z,100457.00
2018-06-04T20:42:43.701Z,100462.00
2018-06-04T20:45:13.892Z,100462.00
2018-06-04T20:47:44.090Z,100463.00
2018-06-04T20:50:14.562Z,100466.00
2018-06-04T20:52:44.239Z,100469.00
2018-06-04T20:55:14.254Z,100469.00
2018-06-04T20:57:44.381Z,100477.00
2018-06-04T21:00:15.229Z,100478.00
2018-06-04T21:02:46.073Z,100480.00
2018-06-04T21:05:16.649Z,100475.00
2018-06-04T21:07:46.877Z,100468.00
2018-06-04T21:10:17.352Z,100471.00
2018-06-04T21:12:47.559Z,100471.00
2018-06-04T21:15:18.747Z,100471.00
2018-06-04T21:17:49.440Z,100462.00
2018-06-04T21:20:19.941Z,100463.00
2018-06-04T21:22:50.731Z,100473.00
2018-06-04T21:25:21.211Z,100472.00
2018-06-04T21:27:51.295Z,100475.00
2018-06-04T21:30:21.900Z,100478.00
2018-06-04T21:32:53.131Z,100471.00
2018-06-04T21:35:24.137Z,100472.00
2018-06-04T21:37:54.846Z,100462.00
2018-06-04T21:40:24.917Z,100469.00
2018-06-04T21:42:56.110Z,100472.00
2018-06-04T21:45:26.834Z,100458.00
2018-06-04T21:47:58.624Z,100464.00
2018-06-04T21:50:28.950Z,100468.00
2018-06-04T21:52:59.697Z,100459.00
2018-06-04T21:55:31.002Z,100462.00
2018-06-04T21:58:02.277Z,100460.00
2018-06-04T22:00:32.915Z,100453.00
2018-06-04T22:03:04.024Z,100461.00
2018-06-04T22:05:36.975Z,100460.00
2018-06-04T22:08:09.557Z,100466.00
2018-06-04T22:10:40.836Z,100462.00
2018-06-04T22:13:11.651Z,100466.00
2018-06-04T22:15:41.920Z,100472.00
2018-06-04T22:18:12.975Z,100475.00
2018-06-04T22:20:45.057Z,100476.00
2018-06-04T22:23:16.769Z,100465.00
2018-06-04T22:25:47.725Z,100464.00
2018-06-04T22:28:20.167Z,100463.00
2018-06-04T22:30:51.838Z,100461.00
2018-06-04T22:33:22.690Z,100466.00
2018-06-04T22:35:55.220Z,100467.00
2018-06-04T22:38:25.881Z,100462.00
2018-06-04T22:40:56.053Z,100465.00
2018-06-04T22:43:26.686Z,100458.00
2018-06-04T22:45:56.991Z,100464.00
2018-06-04T22:48:28.643Z,100466.00
2018-06-04T22:50:59.368Z,100462.00
2018-06-04T22:53:29.703Z,100460.00
2018-06-04T22:56:00.802Z,100453.00
2018-06-04T22:58:31.505Z,100454.00
2018-06-04T23:01:02.177Z,100457.00
2018-06-04T23:03:32.568Z,100470.00
2018-06-04T23:06:02.630Z,100462.00
2018-06-04T23:08:32.821Z,100452.00
2018-06-04T23:11:04.126Z,100456.00
2018-06-04T23:13:35.335Z,100463.00
2018-06-04T23:16:05.889Z,100456.00
2018-06-04T23:18:36.804Z,100445.00
2018-06-04T23:21:08.042Z,100447.00
2018-06-04T23:23:38.200Z,100451.00
2018-06-04T23:26:09.243Z,100457.00
2018-06-04T23:28:40.582Z,100457.00
2018-06-04T23:31:13.936Z,100452.00
2018-06-04T23:33:44.213Z,100453.00
2018-06-04T23:36:16.022Z,100469.00
2018-06-04T23:38:46.517Z,100450.00
2018-06-04T23:41:16.848Z,100453.00
2018-06-04T23:43:49.206Z,100444.00
2018-06-04T23:46:20.407Z,100434.00
2018-06-04T23:48:50.565Z,100444.00
2018-06-04T23:51:20.771Z,100445.00
2018-06-04T23:53:50.841Z,100445.00
2018-06-04T23:56:21.810Z,100449.00
2018-06-04T23:58:51.856Z,100442.00
